sensor_id;sensor_type;location;lat;lon;timestamp;temperature;humidity
48686;DHT22;34485;51.536;3.816;2023-07-20T00:00:52;17.30;99.90
48686;DHT22;34485;51.536;3.816;2023-07-20T00:03:19;17.30;99.90
48686;DHT22;34485;51.536;3.816;2023-07-20T00:05:51;17.20;99.90
48686;DHT22;34485;51.536;3.816;2023-07-20T00:08:17;17.20;99.90
48686;DHT22;34485;51.536;3.816;2023-07-20T00:10:43;17.10;99.90
48686;DHT22;34485;51.536;3.816;2023-07-20T00:13:10;17.00;99.90
48686;DHT22;34485;51.536;3.816;2023-07-20T00:15:36;17.00;99.90
48686;DHT22;34485;51.536;3.816;2023-07-20T00:18:03;16.90;99.90
48686;DHT22;34485;51.536;3.816;2023-07-20T00:20:29;16.90;99.90
48686;DHT22;34485;51.536;3.816;2023-07-20T00:22:55;16.90;99.90
48686;DHT22;34485;51.536;3.816;2023-07-20T00:25:23;16.80;99.90
48686;DHT22;34485;51.536;3.816;2023-07-20T00:27:48;16.90;99.90
48686;DHT22;34485;51.536;3.816;2023-07-20T00:30:14;16.90;99.90
48686;DHT22;34485;51.536;3.816;2023-07-20T00:32:41;16.90;99.90
48686;DHT22;34485;51.536;3.816;2023-07-20T00:35:07;16.90;99.90
48686;DHT22;34485;51.536;3.816;2023-07-20T00:37:33;16.80;99.90
48686;DHT22;34485;51.536;3.816;2023-07-20T00:39:58;16.80;99.90
48686;DHT22;34485;51.536;3.816;2023-07-20T00:42:24;16.80;99.90
48686;DHT22;34485;51.536;3.816;2023-07-20T00:44:49;16.70;99.90
48686;DHT22;34485;51.536;3.816;2023-07-20T00:47:15;16.70;99.90
48686;DHT22;34485;51.536;3.816;2023-07-20T00:49:41;16.60;99.90
48686;DHT22;34485;51.536;3.816;2023-07-20T00:52:07;16.60;99.90
48686;DHT22;34485;51.536;3.816;2023-07-20T00:54:33;16.50;99.90
48686;DHT22;34485;51.536;3.816;2023-07-20T00:57:01;16.50;99.90
48686;DHT22;34485;51.536;3.816;2023-07-20T00:59:27;16.40;99.90
48686;DHT22;34485;51.536;3.816;2023-07-20T01:01:53;16.40;99.90
48686;DHT22;34485;51.536;3.816;2023-07-20T01:04:20;16.40;99.90
48686;DHT22;34485;51.536;3.816;2023-07-20T01:09:28;16.40;99.90
48686;DHT22;34485;51.536;3.816;2023-07-20T01:14:23;16.30;99.90
48686;DHT22;34485;51.536;3.816;2023-07-20T01:16:50;16.30;99.90
48686;DHT22;34485;51.536;3.816;2023-07-20T01:19:17;16.30;99.90
48686;DHT22;34485;51.536;3.816;2023-07-20T01:30:25;16.20;99.90
48686;DHT22;34485;51.536;3.816;2023-07-20T01:32:55;16.10;99.90
48686;DHT22;34485;51.536;3.816;2023-07-20T01:35:28;16.10;99.90
48686;DHT22;34485;51.536;3.816;2023-07-20T01:37:55;16.10;99.90
48686;DHT22;34485;51.536;3.816;2023-07-20T01:40:22;16.00;99.90
48686;DHT22;34485;51.536;3.816;2023-07-20T01:42:48;16.00;99.90
48686;DHT22;34485;51.536;3.816;2023-07-20T01:45:14;15.90;99.90
48686;DHT22;34485;51.536;3.816;2023-07-20T01:47:40;15.90;99.90
48686;DHT22;34485;51.536;3.816;2023-07-20T01:50:06;15.90;99.90
48686;DHT22;34485;51.536;3.816;2023-07-20T01:52:32;15.90;99.90
48686;DHT22;34485;51.536;3.816;2023-07-20T01:54:58;15.80;99.90
48686;DHT22;34485;51.536;3.816;2023-07-20T01:57:23;15.80;99.90
48686;DHT22;34485;51.536;3.816;2023-07-20T01:59:49;15.70;99.90
48686;DHT22;34485;51.536;3.816;2023-07-20T02:02:15;15.70;99.90
48686;DHT22;34485;51.536;3.816;2023-07-20T02:04:40;15.60;99.90
48686;DHT22;34485;51.536;3.816;2023-07-20T02:07:06;15.60;99.90
48686;DHT22;34485;51.536;3.816;2023-07-20T02:09:31;15.50;99.90
48686;DHT22;34485;51.536;3.816;2023-07-20T02:11:57;15.40;99.90
48686;DHT22;34485;51.536;3.816;2023-07-20T02:14:23;15.40;99.90
48686;DHT22;34485;51.536;3.816;2023-07-20T02:16:48;15.40;99.90
48686;DHT22;34485;51.536;3.816;2023-07-20T02:19:18;15.30;99.90
48686;DHT22;34485;51.536;3.816;2023-07-20T02:21:44;15.30;99.90
48686;DHT22;34485;51.536;3.816;2023-07-20T02:24:10;15.20;99.90
48686;DHT22;34485;51.536;3.816;2023-07-20T02:26:35;15.20;99.90
48686;DHT22;34485;51.536;3.816;2023-07-20T02:29:01;15.20;99.90
48686;DHT22;34485;51.536;3.816;2023-07-20T02:31:30;15.20;99.90
48686;DHT22;34485;51.536;3.816;2023-07-20T02:33:55;15.10;99.90
48686;DHT22;34485;51.536;3.816;2023-07-20T02:36:21;15.10;99.90
48686;DHT22;34485;51.536;3.816;2023-07-20T02:38:47;15.10;99.90
48686;DHT22;34485;51.536;3.816;2023-07-20T02:41:13;15.10;99.90
48686;DHT22;34485;51.536;3.816;2023-07-20T02:43:39;15.00;99.90
48686;DHT22;34485;51.536;3.816;2023-07-20T02:46:04;15.00;99.90
48686;DHT22;34485;51.536;3.816;2023-07-20T02:48:30;15.00;99.90
48686;DHT22;34485;51.536;3.816;2023-07-20T02:50:55;14.90;99.90
48686;DHT22;34485;51.536;3.816;2023-07-20T02:53:21;14.90;99.90
48686;DHT22;34485;51.536;3.816;2023-07-20T02:55:47;14.90;99.90
48686;DHT22;34485;51.536;3.816;2023-07-20T02:58:13;14.80;99.90
48686;DHT22;34485;51.536;3.816;2023-07-20T03:00:38;14.80;99.90
48686;DHT22;34485;51.536;3.816;2023-07-20T03:03:04;14.80;99.90
48686;DHT22;34485;51.536;3.816;2023-07-20T03:05:29;14.80;99.90
48686;DHT22;34485;51.536;3.816;2023-07-20T03:07:57;14.70;99.90
48686;DHT22;34485;51.536;3.816;2023-07-20T03:10:24;14.70;99.90
48686;DHT22;34485;51.536;3.816;2023-07-20T03:12:50;14.80;99.90
48686;DHT22;34485;51.536;3.816;2023-07-20T03:15:15;14.80;99.90
48686;DHT22;34485;51.536;3.816;2023-07-20T03:17:41;14.80;99.90
48686;DHT22;34485;51.536;3.816;2023-07-20T03:20:07;14.80;99.90
48686;DHT22;34485;51.536;3.816;2023-07-20T03:22:35;14.80;99.90
48686;DHT22;34485;51.536;3.816;2023-07-20T03:25:00;14.80;99.90
48686;DHT22;34485;51.536;3.816;2023-07-20T03:27:26;14.80;99.90
48686;DHT22;34485;51.536;3.816;2023-07-20T03:29:51;14.80;99.90
48686;DHT22;34485;51.536;3.816;2023-07-20T03:32:17;14.80;99.90
48686;DHT22;34485;51.536;3.816;2023-07-20T03:34:42;14.90;99.90
48686;DHT22;34485;51.536;3.816;2023-07-20T03:37:09;15.00;99.90
48686;DHT22;34485;51.536;3.816;2023-07-20T03:39:35;15.00;99.90
48686;DHT22;34485;51.536;3.816;2023-07-20T03:42:01;15.00;99.90
48686;DHT22;34485;51.536;3.816;2023-07-20T03:44:26;15.00;99.90
48686;DHT22;34485;51.536;3.816;2023-07-20T03:46:52;15.00;99.90
48686;DHT22;34485;51.536;3.816;2023-07-20T03:49:18;15.00;99.90
48686;DHT22;34485;51.536;3.816;2023-07-20T03:51:43;15.00;99.90
48686;DHT22;34485;51.536;3.816;2023-07-20T03:54:09;14.90;99.90
48686;DHT22;34485;51.536;3.816;2023-07-20T03:56:35;14.90;99.90
48686;DHT22;34485;51.536;3.816;2023-07-20T03:59:01;14.90;99.90
48686;DHT22;34485;51.536;3.816;2023-07-20T04:01:27;14.80;99.90
48686;DHT22;34485;51.536;3.816;2023-07-20T04:03:52;14.80;99.90
48686;DHT22;34485;51.536;3.816;2023-07-20T04:06:18;14.70;99.90
48686;DHT22;34485;51.536;3.816;2023-07-20T04:08:44;14.70;99.90
48686;DHT22;34485;51.536;3.816;2023-07-20T04:11:12;14.60;99.90
48686;DHT22;34485;51.536;3.816;2023-07-20T04:13:38;14.60;99.90
48686;DHT22;34485;51.536;3.816;2023-07-20T04:16:04;14.60;99.90
48686;DHT22;34485;51.536;3.816;2023-07-20T04:18:30;14.60;99.90
48686;DHT22;34485;51.536;3.816;2023-07-20T04:20:55;14.70;99.90
48686;DHT22;34485;51.536;3.816;2023-07-20T04:23:21;14.80;99.90
48686;DHT22;34485;51.536;3.816;2023-07-20T04:25:46;14.80;99.90
48686;DHT22;34485;51.536;3.816;2023-07-20T04:28:12;14.90;99.90
48686;DHT22;34485;51.536;3.816;2023-07-20T04:30:39;14.90;99.90
48686;DHT22;34485;51.536;3.816;2023-07-20T04:33:05;14.90;99.90
48686;DHT22;34485;51.536;3.816;2023-07-20T04:35:53;15.00;99.90
48686;DHT22;34485;51.536;3.816;2023-07-20T04:38:20;15.00;99.90
48686;DHT22;34485;51.536;3.816;2023-07-20T04:40:48;15.20;99.90
48686;DHT22;34485;51.536;3.816;2023-07-20T04:43:14;15.30;99.90
48686;DHT22;34485;51.536;3.816;2023-07-20T04:45:40;15.40;99.90
48686;DHT22;34485;51.536;3.816;2023-07-20T04:48:10;15.50;99.90
48686;DHT22;34485;51.536;3.816;2023-07-20T04:50:37;15.50;99.90
48686;DHT22;34485;51.536;3.816;2023-07-20T04:53:03;15.60;99.90
48686;DHT22;34485;51.536;3.816;2023-07-20T04:55:29;15.60;99.90
48686;DHT22;34485;51.536;3.816;2023-07-20T04:57:54;15.60;99.90
48686;DHT22;34485;51.536;3.816;2023-07-20T05:00:20;15.70;99.90
48686;DHT22;34485;51.536;3.816;2023-07-20T05:02:47;15.70;99.90
48686;DHT22;34485;51.536;3.816;2023-07-20T05:05:14;15.70;99.90
48686;DHT22;34485;51.536;3.816;2023-07-20T05:07:40;15.70;99.90
48686;DHT22;34485;51.536;3.816;2023-07-20T05:10:06;15.80;99.90
48686;DHT22;34485;51.536;3.816;2023-07-20T05:12:32;15.90;99.90
48686;DHT22;34485;51.536;3.816;2023-07-20T05:14:58;16.00;99.90
48686;DHT22;34485;51.536;3.816;2023-07-20T05:17:23;16.20;99.90
48686;DHT22;34485;51.536;3.816;2023-07-20T05:19:50;16.30;99.90
48686;DHT22;34485;51.536;3.816;2023-07-20T05:22:16;16.40;99.90
48686;DHT22;34485;51.536;3.816;2023-07-20T05:24:41;16.60;99.90
48686;DHT22;34485;51.536;3.816;2023-07-20T05:27:07;16.80;99.90
48686;DHT22;34485;51.536;3.816;2023-07-20T05:29:33;16.90;99.90
48686;DHT22;34485;51.536;3.816;2023-07-20T05:31:58;17.00;99.90
48686;DHT22;34485;51.536;3.816;2023-07-20T05:34:24;17.10;99.90
48686;DHT22;34485;51.536;3.816;2023-07-20T05:36:49;17.20;99.90
48686;DHT22;34485;51.536;3.816;2023-07-20T05:39:17;17.20;99.90
48686;DHT22;34485;51.536;3.816;2023-07-20T05:41:43;17.30;99.90
48686;DHT22;34485;51.536;3.816;2023-07-20T05:44:09;17.30;99.90
48686;DHT22;34485;51.536;3.816;2023-07-20T05:46:34;17.30;99.90
48686;DHT22;34485;51.536;3.816;2023-07-20T05:49:00;17.40;99.90
48686;DHT22;34485;51.536;3.816;2023-07-20T05:51:27;17.40;98.80
48686;DHT22;34485;51.536;3.816;2023-07-20T05:53:52;17.50;98.10
48686;DHT22;34485;51.536;3.816;2023-07-20T05:56:18;17.50;98.10
48686;DHT22;34485;51.536;3.816;2023-07-20T05:58:44;17.60;97.80
48686;DHT22;34485;51.536;3.816;2023-07-20T06:01:10;17.60;97.00
48686;DHT22;34485;51.536;3.816;2023-07-20T06:03:35;17.70;97.60
48686;DHT22;34485;51.536;3.816;2023-07-20T06:06:03;17.80;97.60
48686;DHT22;34485;51.536;3.816;2023-07-20T06:08:32;17.90;97.40
48686;DHT22;34485;51.536;3.816;2023-07-20T06:10:57;18.00;97.30
48686;DHT22;34485;51.536;3.816;2023-07-20T06:13:23;18.00;95.80
48686;DHT22;34485;51.536;3.816;2023-07-20T06:15:49;18.10;95.90
48686;DHT22;34485;51.536;3.816;2023-07-20T06:18:15;18.20;95.00
48686;DHT22;34485;51.536;3.816;2023-07-20T06:20:40;18.10;94.30
48686;DHT22;34485;51.536;3.816;2023-07-20T06:23:06;18.20;94.30
48686;DHT22;34485;51.536;3.816;2023-07-20T06:25:32;18.30;94.50
48686;DHT22;34485;51.536;3.816;2023-07-20T06:27:58;18.40;94.40
48686;DHT22;34485;51.536;3.816;2023-07-20T06:30:24;18.40;93.70
48686;DHT22;34485;51.536;3.816;2023-07-20T06:32:51;18.50;94.10
48686;DHT22;34485;51.536;3.816;2023-07-20T06:35:17;18.50;92.70
48686;DHT22;34485;51.536;3.816;2023-07-20T06:37:43;18.60;93.10
48686;DHT22;34485;51.536;3.816;2023-07-20T06:40:09;18.70;93.00
48686;DHT22;34485;51.536;3.816;2023-07-20T06:42:35;18.70;92.70
48686;DHT22;34485;51.536;3.816;2023-07-20T06:45:01;18.80;92.70
48686;DHT22;34485;51.536;3.816;2023-07-20T06:47:27;18.90;92.60
48686;DHT22;34485;51.536;3.816;2023-07-20T06:49:52;18.90;92.20
48686;DHT22;34485;51.536;3.816;2023-07-20T06:52:18;19.10;92.30
48686;DHT22;34485;51.536;3.816;2023-07-20T06:54:43;19.30;92.30
48686;DHT22;34485;51.536;3.816;2023-07-20T06:57:10;19.50;92.30
48686;DHT22;34485;51.536;3.816;2023-07-20T06:59:35;19.70;90.80
48686;DHT22;34485;51.536;3.816;2023-07-20T07:02:01;20.00;90.50
48686;DHT22;34485;51.536;3.816;2023-07-20T07:04:26;20.20;88.90
48686;DHT22;34485;51.536;3.816;2023-07-20T07:06:53;20.30;85.30
48686;DHT22;34485;51.536;3.816;2023-07-20T07:09:18;20.40;84.60
48686;DHT22;34485;51.536;3.816;2023-07-20T07:11:44;20.40;83.80
48686;DHT22;34485;51.536;3.816;2023-07-20T07:14:12;20.60;86.00
48686;DHT22;34485;51.536;3.816;2023-07-20T07:16:38;20.90;84.30
48686;DHT22;34485;51.536;3.816;2023-07-20T07:19:03;21.30;84.10
48686;DHT22;34485;51.536;3.816;2023-07-20T07:21:31;21.70;82.10
48686;DHT22;34485;51.536;3.816;2023-07-20T07:23:56;22.00;79.70
48686;DHT22;34485;51.536;3.816;2023-07-20T07:26:23;22.20;75.30
48686;DHT22;34485;51.536;3.816;2023-07-20T07:31:15;23.10;99.80
48686;DHT22;34485;51.536;3.816;2023-07-20T07:33:41;24.10;71.80
48686;DHT22;34485;51.536;3.816;2023-07-20T07:36:07;25.40;66.20
48686;DHT22;34485;51.536;3.816;2023-07-20T07:38:32;26.60;63.90
48686;DHT22;34485;51.536;3.816;2023-07-20T07:40:59;27.80;58.20
48686;DHT22;34485;51.536;3.816;2023-07-20T07:43:24;28.30;52.70
48686;DHT22;34485;51.536;3.816;2023-07-20T07:45:53;28.90;51.20
48686;DHT22;34485;51.536;3.816;2023-07-20T07:48:19;29.40;49.50
48686;DHT22;34485;51.536;3.816;2023-07-20T07:50:45;30.00;47.80
48686;DHT22;34485;51.536;3.816;2023-07-20T07:53:11;30.80;46.10
48686;DHT22;34485;51.536;3.816;2023-07-20T07:55:37;31.40;42.70
48686;DHT22;34485;51.536;3.816;2023-07-20T07:58:02;30.60;42.10
48686;DHT22;34485;51.536;3.816;2023-07-20T08:00:28;29.70;42.80
48686;DHT22;34485;51.536;3.816;2023-07-20T08:02:54;28.60;45.20
48686;DHT22;34485;51.536;3.816;2023-07-20T08:05:19;28.40;49.00
48686;DHT22;34485;51.536;3.816;2023-07-20T08:07:45;29.50;47.10
48686;DHT22;34485;51.536;3.816;2023-07-20T08:10:11;30.40;44.10
48686;DHT22;34485;51.536;3.816;2023-07-20T08:12:37;30.70;44.80
48686;DHT22;34485;51.536;3.816;2023-07-20T08:15:02;30.80;41.90
48686;DHT22;34485;51.536;3.816;2023-07-20T08:17:29;30.40;43.70
48686;DHT22;34485;51.536;3.816;2023-07-20T08:19:56;30.90;44.40
48686;DHT22;34485;51.536;3.816;2023-07-20T08:22:21;32.10;42.00
48686;DHT22;34485;51.536;3.816;2023-07-20T08:24:47;33.30;39.30
48686;DHT22;34485;51.536;3.816;2023-07-20T08:27:12;34.60;37.10
48686;DHT22;34485;51.536;3.816;2023-07-20T08:29:38;34.20;35.80
48686;DHT22;34485;51.536;3.816;2023-07-20T08:32:04;33.20;36.80
48686;DHT22;34485;51.536;3.816;2023-07-20T08:34:31;32.30;38.70
48686;DHT22;34485;51.536;3.816;2023-07-20T08:36:58;31.40;39.70
48686;DHT22;34485;51.536;3.816;2023-07-20T08:41:50;30.00;98.80
48686;DHT22;34485;51.536;3.816;2023-07-20T08:44:17;28.90;43.00
48686;DHT22;34485;51.536;3.816;2023-07-20T08:46:43;28.00;45.50
48686;DHT22;34485;51.536;3.816;2023-07-20T08:49:10;27.20;46.80
48686;DHT22;34485;51.536;3.816;2023-07-20T08:51:36;26.70;49.40
48686;DHT22;34485;51.536;3.816;2023-07-20T08:54:02;26.50;49.80
48686;DHT22;34485;51.536;3.816;2023-07-20T08:56:29;26.60;50.20
48686;DHT22;34485;51.536;3.816;2023-07-20T08:58:57;26.80;49.70
48686;DHT22;34485;51.536;3.816;2023-07-20T09:01:23;27.10;49.90
48686;DHT22;34485;51.536;3.816;2023-07-20T09:06:16;28.50;47.20
48686;DHT22;34485;51.536;3.816;2023-07-20T09:08:42;29.20;45.30
48686;DHT22;34485;51.536;3.816;2023-07-20T09:11:09;30.10;44.30
48686;DHT22;34485;51.536;3.816;2023-07-20T09:13:35;31.10;41.80
48686;DHT22;34485;51.536;3.816;2023-07-20T09:16:00;31.60;39.50
48686;DHT22;34485;51.536;3.816;2023-07-20T09:18:31;32.00;39.40
48686;DHT22;34485;51.536;3.816;2023-07-20T09:21:05;31.50;39.00
48686;DHT22;34485;51.536;3.816;2023-07-20T09:23:35;31.40;39.60
48686;DHT22;34485;51.536;3.816;2023-07-20T09:26:10;31.70;40.20
48686;DHT22;34485;51.536;3.816;2023-07-20T09:28:42;31.60;39.00
48686;DHT22;34485;51.536;3.816;2023-07-20T09:31:16;31.40;39.40
48686;DHT22;34485;51.536;3.816;2023-07-20T09:33:42;31.10;39.30
48686;DHT22;34485;51.536;3.816;2023-07-20T09:36:09;31.00;40.50
48686;DHT22;34485;51.536;3.816;2023-07-20T09:38:37;31.70;40.10
48686;DHT22;34485;51.536;3.816;2023-07-20T09:41:05;32.20;37.70
48686;DHT22;34485;51.536;3.816;2023-07-20T09:43:32;32.30;37.70
48686;DHT22;34485;51.536;3.816;2023-07-20T09:45:59;32.00;37.80
48686;DHT22;34485;51.536;3.816;2023-07-20T09:48:25;31.50;38.70
48686;DHT22;34485;51.536;3.816;2023-07-20T09:50:54;31.10;39.10
48686;DHT22;34485;51.536;3.816;2023-07-20T09:53:20;30.80;39.50
48686;DHT22;34485;51.536;3.816;2023-07-20T09:55:47;31.10;40.30
48686;DHT22;34485;51.536;3.816;2023-07-20T09:58:13;32.00;36.60
48686;DHT22;34485;51.536;3.816;2023-07-20T10:00:40;32.30;36.30
48686;DHT22;34485;51.536;3.816;2023-07-20T10:03:06;32.40;37.90
48686;DHT22;34485;51.536;3.816;2023-07-20T10:05:36;32.20;36.50
48686;DHT22;34485;51.536;3.816;2023-07-20T10:08:03;32.00;37.30
48686;DHT22;34485;51.536;3.816;2023-07-20T10:10:33;31.80;38.50
48686;DHT22;34485;51.536;3.816;2023-07-20T10:13:01;31.60;37.90
48686;DHT22;34485;51.536;3.816;2023-07-20T10:15:37;31.20;38.90
48686;DHT22;34485;51.536;3.816;2023-07-20T10:18:12;31.10;39.60
48686;DHT22;34485;51.536;3.816;2023-07-20T10:20:40;31.30;38.50
48686;DHT22;34485;51.536;3.816;2023-07-20T10:23:07;31.40;37.90
48686;DHT22;34485;51.536;3.816;2023-07-20T10:25:33;31.50;38.50
48686;DHT22;34485;51.536;3.816;2023-07-20T10:28:06;31.30;38.10
48686;DHT22;34485;51.536;3.816;2023-07-20T10:30:36;31.00;39.10
48686;DHT22;34485;51.536;3.816;2023-07-20T10:33:03;30.60;39.70
48686;DHT22;34485;51.536;3.816;2023-07-20T10:35:29;30.40;93.50
48686;DHT22;34485;51.536;3.816;2023-07-20T10:38:00;29.90;41.60
48686;DHT22;34485;51.536;3.816;2023-07-20T10:43:12;29.30;84.10
48686;DHT22;34485;51.536;3.816;2023-07-20T10:48:22;29.40;42.00
48686;DHT22;34485;51.536;3.816;2023-07-20T10:51:14;29.90;43.30
48686;DHT22;34485;51.536;3.816;2023-07-20T10:56:15;29.90;92.50
48686;DHT22;34485;51.536;3.816;2023-07-20T10:58:45;29.10;42.30
48686;DHT22;34485;51.536;3.816;2023-07-20T11:01:16;28.70;43.40
48686;DHT22;34485;51.536;3.816;2023-07-20T11:03:42;28.20;42.70
48686;DHT22;34485;51.536;3.816;2023-07-20T11:08:56;29.40;44.50
48686;DHT22;34485;51.536;3.816;2023-07-20T11:14:00;29.70;63.90
48686;DHT22;34485;51.536;3.816;2023-07-20T11:21:38;29.10;41.20
48686;DHT22;34485;51.536;3.816;2023-07-20T11:24:05;28.70;44.10
48686;DHT22;34485;51.536;3.816;2023-07-20T11:26:39;28.10;43.60
48686;DHT22;34485;51.536;3.816;2023-07-20T11:29:04;28.00;45.60
48686;DHT22;34485;51.536;3.816;2023-07-20T11:31:30;28.20;46.20
48686;DHT22;34485;51.536;3.816;2023-07-20T11:33:56;28.10;43.10
48686;DHT22;34485;51.536;3.816;2023-07-20T11:36:21;27.40;45.20
48686;DHT22;34485;51.536;3.816;2023-07-20T11:38:47;26.90;47.00
48686;DHT22;34485;51.536;3.816;2023-07-20T11:41:13;26.50;50.70
48686;DHT22;34485;51.536;3.816;2023-07-20T11:43:39;26.40;53.20
48686;DHT22;34485;51.536;3.816;2023-07-20T11:46:06;26.10;51.70
48686;DHT22;34485;51.536;3.816;2023-07-20T11:48:31;26.10;53.50
48686;DHT22;34485;51.536;3.816;2023-07-20T11:50:57;26.60;54.40
48686;DHT22;34485;51.536;3.816;2023-07-20T11:53:24;27.70;51.60
48686;DHT22;34485;51.536;3.816;2023-07-20T11:55:51;28.40;48.60
48686;DHT22;34485;51.536;3.816;2023-07-20T11:58:17;28.60;46.50
48686;DHT22;34485;51.536;3.816;2023-07-20T12:00:44;28.50;45.90
48686;DHT22;34485;51.536;3.816;2023-07-20T12:03:11;27.60;45.60
48686;DHT22;34485;51.536;3.816;2023-07-20T12:05:40;26.70;50.40
48686;DHT22;34485;51.536;3.816;2023-07-20T12:08:06;26.30;50.60
48686;DHT22;34485;51.536;3.816;2023-07-20T12:10:31;26.20;51.90
48686;DHT22;34485;51.536;3.816;2023-07-20T12:13:03;26.00;52.70
48686;DHT22;34485;51.536;3.816;2023-07-20T12:15:29;26.00;52.00
48686;DHT22;34485;51.536;3.816;2023-07-20T12:17:57;26.20;52.70
48686;DHT22;34485;51.536;3.816;2023-07-20T12:20:36;26.60;51.50
48686;DHT22;34485;51.536;3.816;2023-07-20T12:23:11;27.00;51.50
48686;DHT22;34485;51.536;3.816;2023-07-20T12:25:41;27.40;49.50
48686;DHT22;34485;51.536;3.816;2023-07-20T12:28:12;27.40;47.90
48686;DHT22;34485;51.536;3.816;2023-07-20T12:30:58;26.90;46.30
48686;DHT22;34485;51.536;3.816;2023-07-20T12:33:24;26.50;51.10
48686;DHT22;34485;51.536;3.816;2023-07-20T12:35:50;26.20;52.50
48686;DHT22;34485;51.536;3.816;2023-07-20T12:38:16;26.00;54.40
48686;DHT22;34485;51.536;3.816;2023-07-20T12:40:42;25.50;54.30
48686;DHT22;34485;51.536;3.816;2023-07-20T12:43:08;25.30;57.80
48686;DHT22;34485;51.536;3.816;2023-07-20T12:45:34;25.30;58.90
48686;DHT22;34485;51.536;3.816;2023-07-20T12:47:59;25.40;58.00
48686;DHT22;34485;51.536;3.816;2023-07-20T12:50:26;25.50;57.80
48686;DHT22;34485;51.536;3.816;2023-07-20T12:52:51;25.70;57.40
48686;DHT22;34485;51.536;3.816;2023-07-20T12:55:17;25.80;55.80
48686;DHT22;34485;51.536;3.816;2023-07-20T12:57:43;25.80;55.80
48686;DHT22;34485;51.536;3.816;2023-07-20T13:00:10;25.80;55.40
48686;DHT22;34485;51.536;3.816;2023-07-20T13:02:38;25.80;55.00
48686;DHT22;34485;51.536;3.816;2023-07-20T13:05:04;25.80;55.30
48686;DHT22;34485;51.536;3.816;2023-07-20T13:07:35;25.80;55.50
48686;DHT22;34485;51.536;3.816;2023-07-20T13:10:02;25.60;56.00
48686;DHT22;34485;51.536;3.816;2023-07-20T13:12:29;25.60;56.60
48686;DHT22;34485;51.536;3.816;2023-07-20T13:14:56;25.40;57.70
48686;DHT22;34485;51.536;3.816;2023-07-20T13:17:22;25.40;57.30
48686;DHT22;34485;51.536;3.816;2023-07-20T13:19:48;25.20;57.70
48686;DHT22;34485;51.536;3.816;2023-07-20T13:22:14;25.20;58.20
48686;DHT22;34485;51.536;3.816;2023-07-20T13:24:41;25.10;58.10
48686;DHT22;34485;51.536;3.816;2023-07-20T13:27:07;25.20;58.20
48686;DHT22;34485;51.536;3.816;2023-07-20T13:29:32;25.20;57.20
48686;DHT22;34485;51.536;3.816;2023-07-20T13:31:58;25.20;58.10
48686;DHT22;34485;51.536;3.816;2023-07-20T13:34:25;25.20;57.40
48686;DHT22;34485;51.536;3.816;2023-07-20T13:36:51;25.30;57.00
48686;DHT22;34485;51.536;3.816;2023-07-20T13:39:16;25.30;55.70
48686;DHT22;34485;51.536;3.816;2023-07-20T13:41:42;25.30;57.00
48686;DHT22;34485;51.536;3.816;2023-07-20T13:44:08;25.20;56.40
48686;DHT22;34485;51.536;3.816;2023-07-20T13:46:33;25.10;56.30
48686;DHT22;34485;51.536;3.816;2023-07-20T13:48:59;25.10;56.70
48686;DHT22;34485;51.536;3.816;2023-07-20T13:51:25;25.00;57.90
48686;DHT22;34485;51.536;3.816;2023-07-20T13:53:51;25.10;55.50
48686;DHT22;34485;51.536;3.816;2023-07-20T13:56:17;25.10;55.90
48686;DHT22;34485;51.536;3.816;2023-07-20T13:58:43;25.10;56.30
48686;DHT22;34485;51.536;3.816;2023-07-20T14:01:08;25.20;54.60
48686;DHT22;34485;51.536;3.816;2023-07-20T14:03:34;25.20;55.80
48686;DHT22;34485;51.536;3.816;2023-07-20T14:06:00;25.20;56.00
48686;DHT22;34485;51.536;3.816;2023-07-20T14:08:26;25.30;54.60
48686;DHT22;34485;51.536;3.816;2023-07-20T14:10:51;25.20;54.60
48686;DHT22;34485;51.536;3.816;2023-07-20T14:13:17;25.10;53.90
48686;DHT22;34485;51.536;3.816;2023-07-20T14:15:43;25.00;52.50
48686;DHT22;34485;51.536;3.816;2023-07-20T14:18:08;24.90;52.90
48686;DHT22;34485;51.536;3.816;2023-07-20T14:20:34;24.80;52.10
48686;DHT22;34485;51.536;3.816;2023-07-20T14:23:00;24.80;53.30
48686;DHT22;34485;51.536;3.816;2023-07-20T14:25:26;24.70;51.10
48686;DHT22;34485;51.536;3.816;2023-07-20T14:27:51;24.60;53.60
48686;DHT22;34485;51.536;3.816;2023-07-20T14:30:17;24.60;53.10
48686;DHT22;34485;51.536;3.816;2023-07-20T14:32:43;24.60;52.60
48686;DHT22;34485;51.536;3.816;2023-07-20T14:35:09;24.70;53.10
48686;DHT22;34485;51.536;3.816;2023-07-20T14:37:34;24.70;54.00
48686;DHT22;34485;51.536;3.816;2023-07-20T14:40:00;24.70;54.80
48686;DHT22;34485;51.536;3.816;2023-07-20T14:42:26;24.60;53.10
48686;DHT22;34485;51.536;3.816;2023-07-20T14:44:51;24.50;54.80
48686;DHT22;34485;51.536;3.816;2023-07-20T14:47:17;24.40;55.60
48686;DHT22;34485;51.536;3.816;2023-07-20T14:49:43;24.40;57.60
48686;DHT22;34485;51.536;3.816;2023-07-20T14:52:09;24.10;55.80
48686;DHT22;34485;51.536;3.816;2023-07-20T14:54:35;24.00;58.00
48686;DHT22;34485;51.536;3.816;2023-07-20T14:57:01;23.90;56.60
48686;DHT22;34485;51.536;3.816;2023-07-20T14:59:26;23.80;56.00
48686;DHT22;34485;51.536;3.816;2023-07-20T15:01:52;23.70;57.20
48686;DHT22;34485;51.536;3.816;2023-07-20T15:04:18;23.60;55.50
48686;DHT22;34485;51.536;3.816;2023-07-20T15:06:44;23.40;54.00
48686;DHT22;34485;51.536;3.816;2023-07-20T15:09:09;23.20;54.60
48686;DHT22;34485;51.536;3.816;2023-07-20T15:11:36;23.00;54.30
48686;DHT22;34485;51.536;3.816;2023-07-20T15:14:02;22.80;57.60
48686;DHT22;34485;51.536;3.816;2023-07-20T15:18:54;22.50;58.20
48686;DHT22;34485;51.536;3.816;2023-07-20T15:21:19;22.40;58.00
48686;DHT22;34485;51.536;3.816;2023-07-20T15:23:45;22.40;59.00
48686;DHT22;34485;51.536;3.816;2023-07-20T15:26:11;22.30;59.50
48686;DHT22;34485;51.536;3.816;2023-07-20T15:28:37;22.40;59.20
48686;DHT22;34485;51.536;3.816;2023-07-20T15:31:04;22.30;57.70
48686;DHT22;34485;51.536;3.816;2023-07-20T15:33:31;22.30;59.10
48686;DHT22;34485;51.536;3.816;2023-07-20T15:35:57;22.40;56.20
48686;DHT22;34485;51.536;3.816;2023-07-20T15:38:22;22.50;57.00
48686;DHT22;34485;51.536;3.816;2023-07-20T15:40:48;22.50;53.30
48686;DHT22;34485;51.536;3.816;2023-07-20T15:43:17;22.60;55.00
48686;DHT22;34485;51.536;3.816;2023-07-20T15:45:47;22.70;55.00
48686;DHT22;34485;51.536;3.816;2023-07-20T15:48:14;22.70;55.00
48686;DHT22;34485;51.536;3.816;2023-07-20T15:50:40;22.70;55.00
48686;DHT22;34485;51.536;3.816;2023-07-20T15:53:05;22.80;54.10
48686;DHT22;34485;51.536;3.816;2023-07-20T15:55:31;22.80;53.60
48686;DHT22;34485;51.536;3.816;2023-07-20T15:57:57;22.90;54.60
48686;DHT22;34485;51.536;3.816;2023-07-20T16:00:22;22.90;53.30
48686;DHT22;34485;51.536;3.816;2023-07-20T16:02:51;22.70;53.00
48686;DHT22;34485;51.536;3.816;2023-07-20T16:05:16;22.60;52.80
48686;DHT22;34485;51.536;3.816;2023-07-20T16:07:42;22.20;53.20